Latest Weather Observations for Victoria River Downs

IDD60801

Issued at 9:21 am CST Wednesday 19 June 2019 (issued every 10 minutes, with the page automatically refreshed every 10 minutes)

About weather observations | Map of weather stations | Latest weather observations for NT | Other Formats
Station Details ID: 014825 Name: VICTORIA RIVER DOWNS Lat: -16.40 Lon: 131.01 Height: 88.5 m
Data from the previous 72 hours. | See also: Recent months at Victoria River Downs
Date/Time
CST
Temp
°C
App
Temp
°C
Dew
Point
°C
Rel
Hum
%
Delta-T
°C
Wind Press
QNH
hPa
Press
MSL
hPa
Rain since
9am
mm
Dir  Spd
km/h
Gust
km/h
Spd
kts
Gust
kts
19/09:00am 19.3 13.8 -2.3 23 9.1 NE 17 30 9 16 1020.0 1019.8 0.0
19/08:30am 18.6 14.6 -2.3 24 8.7 ESE 9 17 5 9 1019.9 1019.7 0.0
19/08:00am 15.8 13.1 -2.2 29 7.3 NE 2 7 1 4 1019.5 1019.2 0.0
19/07:30am 14.9 11.1 -3.4 28 7.2 ENE 7 9 4 5 1019.2 1018.9 0.0
19/07:00am 16.4 12.8 -3.7 25 8.0 E 6 9 3 5 1019.0 1018.7 0.0
19/06:30am 17.7 13.5 -3.7 23 8.6 E 9 13 5 7 1018.5 1018.2 0.0
19/06:00am 18.3 14.1 -3.8 22 8.9 ESE 9 15 5 8 1018.3 1018.0 0.0
19/05:30am 18.5 13.9 -4.2 21 9.1 ESE 11 17 6 9 1018.1 1017.8 0.0
19/05:00am 19.1 14.1 -4.4 20 9.5 E 13 19 7 10 1018.0 1017.7 0.0
19/04:30am 19.7 14.7 -3.9 20 9.6 ESE 13 20 7 11 1017.9 1017.6 0.0
19/04:00am 20.1 14.7 -4.2 19 9.9 E 15 26 8 14 1017.8 1017.5 0.0
19/03:30am 20.2 15.7 -3.4 20 9.8 ESE 11 20 6 11 1017.8 1017.5 0.0
19/03:00am 20.3 15.9 -2.7 21 9.7 E 11 17 6 9 1017.7 1017.5 0.0
19/02:30am 20.8 16.0 -2.3 21 9.9 E 13 17 7 9 1017.8 1017.5 0.0
19/02:00am 21.4 16.7 -1.8 21 10.0 E 13 19 7 10 1017.8 1017.5 0.0
19/01:30am 21.8 16.9 -0.2 23 9.9 ESE 15 24 8 13 1017.6 1017.3 0.0
19/01:00am 21.5 18.2 2.2 28 9.0 ESE 9 15 5 8 1017.6 1017.3 0.0
19/12:30am 21.0 17.8 2.8 30 8.6 ESE 9 11 5 6 1017.5 1017.2 0.0
19/12:00am 21.6 18.4 2.8 29 8.9 ESE 9 13 5 7 1017.3 1017.1 0.0
 
Date/Time
CST
Temp
°C
App
Temp
°C
Dew
Point
°C
Rel
Hum
%
Delta-T
°C
Wind Press
QNH
hPa
Press
MSL
hPa
Rain since
9am
mm
Dir  Spd
km/h
Gust
km/h
Spd
kts
Gust
kts
18/11:30pm 22.5 19.2 2.6 27 9.5 ESE 9 13 5 7 1017.4 1017.1 0.0
18/11:00pm 22.8 19.9 2.8 27 9.6 ESE 7 9 4 5 1017.3 1017.0 0.0
18/10:30pm 23.1 19.4 2.6 26 9.8 ESE 11 15 6 8 1017.3 1017.0 0.0
18/10:00pm 24.0 20.8 3.3 26 10.1 SE 9 15 5 8 1017.0 1016.7 0.0
18/09:30pm 24.2 20.6 2.9 25 10.3 SE 11 17 6 9 1016.7 1016.4 0.0
18/09:00pm 24.2 21.0 2.9 25 10.3 ESE 9 11 5 6 1016.5 1016.3 0.0
18/08:30pm 23.6 20.4 3.0 26 10.0 SE 9 11 5 6 1016.1 1015.8 0.0
18/08:00pm 24.4 21.1 2.5 24 10.6 ESE 9 9 5 5 1015.8 1015.5 0.0
18/07:30pm 25.2 21.8 2.0 22 11.1 ESE 9 11 5 6 1015.4 1015.1 0.0
18/07:00pm 26.6 23.2 1.8 20 12.0 ESE 9 11 5 6 1015.1 1014.8 0.0
18/06:30pm 28.0 23.8 1.5 18 12.9 ESE 13 17 7 9 1014.8 1014.5 0.0
18/06:00pm 29.0 24.4 1.5 17 13.4 ESE 15 24 8 13 1014.4 1014.1 0.0
18/05:30pm 29.5 25.0 1.9 17 13.6 ESE 15 22 8 12 1014.0 1013.7 0.0
18/05:00pm 30.1 25.4 0.6 15 14.3 E 15 26 8 14 1013.8 1013.5 0.0
18/04:30pm 30.1 24.7 1.5 16 14.1 ESE 19 32 10 17 1013.7 1013.4 0.0
18/04:00pm 30.3 25.2 0.8 15 14.4 E 17 24 9 13 1013.8 1013.5 0.0
18/03:30pm 30.6 25.5 1.0 15 14.5 E 17 32 9 17 1014.0 1013.7 0.0
18/03:00pm 30.9 25.9 1.3 15 14.6 E 17 26 9 14 1014.2 1013.9 0.0
18/02:30pm 30.1 24.9 2.4 17 13.8 E 19 30 10 16 1014.5 1014.2 0.0
18/02:00pm 29.6 24.4 0.2 15 14.1 ESE 17 28 9 15 1015.0 1014.7 0.0
18/01:30pm 29.9 24.8 0.5 15 14.2 E 17 32 9 17 1015.6 1015.3 0.0
18/01:00pm 29.4 24.1 1.8 17 13.6 ENE 19 33 10 18 1016.3 1016.0 0.0
18/12:30pm 28.4 23.0 2.6 19 12.8 E 20 33 11 18 1017.0 1016.7 0.0
18/12:00pm 28.1 22.7 2.3 19 12.7 E 20 33 11 18 1017.6 1017.5 0.0
18/11:30am 27.7 22.5 3.4 21 12.2 E 20 32 11 17 1018.1 1017.8 0.0
18/11:00am 26.6 21.3 3.2 22 11.6 E 20 32 11 17 1018.7 1018.4 0.0
18/10:30am 25.7 21.1 3.6 24 11.0 E 17 26 9 14 1019.2 1018.9 0.0
18/10:00am 24.6 19.5 3.3 25 10.4 E 19 30 10 16 1019.3 1019.0 0.0
18/09:30am 24.1 19.6 4.0 27 9.9 E 17 28 9 15 1019.1 1018.8 0.0
18/09:00am 23.1 19.0 4.1 29 9.3 E 15 26 8 14 1019.1 1018.9 0.0
18/08:30am 22.0 19.6 5.4 34 8.3 ESE 7 13 4 7 1018.9 1018.6 0.0
18/08:00am 19.6 17.6 7.0 44 6.4 SE 7 11 4 6 1018.6 1018.3 0.0
18/07:30am 17.2 15.6 7.8 54 4.8 SE 6 7 3 4 1018.2 1017.9 0.0
18/07:00am 18.0 15.6 5.2 43 6.2 E 7 9 4 5 1017.9 1017.6 0.0
18/06:30am 18.3 16.3 8.6 53 5.0 SSE 9 13 5 7 1017.6 1017.3 0.0
18/06:00am 17.9 17.7 9.0 56 4.6 CALM 0 0 0 0 1017.5 1017.2 0.0
18/05:30am 18.9 17.8 6.7 45 6.1 NNE 2 6 1 3 1017.2 1016.9 0.0
18/05:00am 19.6 17.7 7.4 45 6.2 ENE 7 11 4 6 1017.0 1016.7 0.0
18/04:30am 19.0 16.5 4.7 39 6.9 WNW 7 9 4 5 1017.0 1016.7 0.0
18/04:00am 19.1 16.8 5.9 42 6.5 NNE 7 9 4 5 1016.5 1016.2 0.0
18/03:30am 18.4 16.5 6.6 46 5.9 W 6 7 3 4 1016.3 1016.0 0.0
18/03:00am 18.0 17.0 5.6 44 6.1 CALM 0 0 0 0 1016.2 1016.0 0.0
18/02:30am 18.1 17.0 5.0 42 6.3 CALM 0 0 0 0 1016.0 1015.7 0.0
18/02:00am 18.4 16.2 6.3 45 6.0 WNW 7 9 4 5 1016.2 1015.9 0.0
18/01:30am 18.4 17.3 5.3 42 6.4 CALM 0 0 0 0 1016.3 1016.0 0.0
18/01:00am 18.7 17.7 5.5 42 6.5 CALM 0 0 0 0 1016.2 1015.9 0.0
18/12:30am 19.5 17.6 6.9 44 6.4 SSE 6 7 3 4 1016.1 1015.8 0.0
18/12:00am 19.7 18.5 6.4 42 6.7 S 2 7 1 4 1016.1 1015.9 0.0
 
Date/Time
CST
Temp
°C
App
Temp
°C
Dew
Point
°C
Rel
Hum
%
Delta-T
°C
Wind Press
QNH
hPa
Press
MSL
hPa
Rain since
9am
mm
Dir  Spd
km/h
Gust
km/h
Spd
kts
Gust
kts
17/11:30pm 20.2 19.3 6.2 40 7.0 CALM 0 0 0 0 1016.1 1015.8 0.0
17/11:00pm 20.4 19.4 5.6 38 7.4 CALM 0 0 0 0 1016.0 1015.7 0.0
17/10:30pm 21.1 19.1 7.0 40 7.2 SSE 7 7 4 4 1015.8 1015.5 0.0
17/10:00pm 21.7 19.4 5.6 35 8.1 SSE 7 9 4 5 1015.7 1015.4 0.0
17/09:30pm 22.7 21.8 9.1 42 7.3 ESE 4 9 2 5 1015.6 1015.3 0.0
17/09:00pm 23.1 21.7 8.8 40 7.7 SE 6 7 3 4 1015.3 1015.0 0.0
17/08:30pm 23.8 21.7 5.7 31 9.2 ESE 6 7 3 4 1015.0 1014.7 0.0
17/08:00pm 25.0 23.0 7.2 32 9.4 ESE 7 7 4 4 1014.6 1014.3 0.0
17/07:30pm 27.0 25.0 6.9 28 10.7 SE 7 7 4 4 1014.1 1013.8 0.0
17/07:00pm 28.2 26.2 6.9 26 11.4 SE 7 9 4 5 1013.7 1013.4 0.0
17/06:30pm 29.9 27.4 6.5 23 12.5 ESE 9 11 5 6 1013.4 1013.1 0.0
17/06:00pm 31.2 28.3 6.3 21 13.4 ESE 11 15 6 8 1013.2 1012.8 0.0
17/05:30pm 31.9 29.1 6.9 21 13.6 SE 11 19 6 10 1012.9 1012.6 0.0
17/05:00pm 32.4 29.1 6.6 20 14.0 E 13 20 7 11 1012.6 1012.3 0.0
17/04:30pm 32.6 29.2 6.0 19 14.3 E 13 19 7 10 1012.5 1012.2 0.0
17/04:00pm 32.8 29.1 6.2 19 14.4 ESE 15 24 8 13 1012.6 1012.3 0.0
17/03:30pm 33.0 28.9 6.3 19 14.5 ENE 17 28 9 15 1012.8 1012.5 0.0
17/03:00pm 32.5 29.2 8.0 22 13.6 ESE 15 30 8 16 1013.0 1012.8 0.0
17/02:30pm 33.0 29.7 6.3 19 14.5 ENE 13 24 7 13 1013.3 1013.0 0.0
17/02:00pm 32.8 28.6 7.6 21 13.9 ENE 19 32 10 17 1013.7 1013.4 0.0
17/01:30pm 32.3 29.3 9.2 24 13.1 ENE 15 24 8 13 1014.2 1013.9 0.0
17/01:00pm 31.9 29.3 9.4 25 12.8 NE 13 19 7 10 1015.0 1014.7 0.0
17/12:30pm 31.0 27.6 9.3 26 12.2 E 17 28 9 15 1015.8 1015.5 0.0
17/12:00pm 30.8 27.7 10.2 28 11.8 ENE 17 28 9 15 1016.2 1015.9 0.0
17/11:30am 29.8 25.3 9.9 29 11.3 NE 24 37 13 20 1016.8 1016.5 0.0
17/11:00am 28.9 24.8 8.6 28 11.2 NE 20 28 11 15 1017.2 1016.9 0.0
17/10:30am 27.5 24.3 8.4 30 10.4 ENE 15 22 8 12 1017.6 1017.3 0.0
17/10:00am 27.0 23.2 8.9 32 9.9 NE 19 26 10 14 1017.7 1017.4 0.0
17/09:30am 26.0 21.4 8.0 32 9.7 NE 22 32 12 17 1017.6 1017.3 0.0
17/09:00am 25.2 20.6 8.2 34 9.1 ENE 22 33 12 18 1017.5 1017.3 0.0
17/08:59am 25.2 20.6 8.2 34 9.1 ENE 22 33 12 18 1017.5 1017.2 0.0
17/08:30am 24.3 22.8 8.3 36 8.6 ENE 6 11 3 6 1017.5 1017.2 0.0
17/08:00am 21.5 20.5 8.7 44 6.8 E 4 7 2 4 1017.3 1017.0 0.0
17/07:30am 19.7 19.5 9.0 50 5.6 CALM 0 6 0 3 1017.0 1016.7 0.0
17/07:00am 20.1 19.1 7.5 44 6.5 NE 2 7 1 4 1016.6 1016.3 0.0
17/06:30am 21.6 21.3 8.8 44 6.8 CALM 0 0 0 0 1016.4 1016.1 0.0
17/06:00am 23.0 22.0 7.5 37 8.1 ESE 2 9 1 5 1015.9 1015.7 0.0
17/05:30am 24.0 21.0 7.6 35 8.7 E 13 19 7 10 1015.7 1015.4 0.0
17/05:00am 24.3 20.5 7.4 34 8.9 ENE 17 19 9 10 1015.7 1015.4 0.0
17/04:30am 24.6 20.8 7.7 34 9.0 ENE 17 26 9 14 1015.4 1015.1 0.0
17/04:00am 24.9 20.7 7.5 33 9.2 ENE 19 30 10 16 1015.1 1014.8 0.0
17/03:30am 25.6 19.6 7.2 31 9.7 ENE 28 41 15 22 1015.1 1014.8 0.0
17/03:00am 25.6 21.8 7.7 32 9.5 ENE 17 24 9 13 1014.5 1014.3 0.0
17/02:30am 26.1 21.7 7.2 30 10.0 E 20 28 11 15 1014.4 1014.1 0.0
17/02:00am 26.6 22.4 7.6 30 10.2 E 19 28 10 15 1014.4 1014.1 0.0
17/01:30am 27.0 24.1 8.0 30 10.3 E 13 19 7 10 1014.5 1014.2 0.0
17/01:00am 22.1 20.5 7.9 40 7.4 ENE 6 17 3 9 1014.6 1014.3 0.0
17/12:30am 21.5 20.0 8.4 43 6.9 E 6 6 3 3 1014.6 1014.3 0.0
17/12:00am 22.1 20.2 7.5 39 7.6 SE 7 9 4 5 1014.5 1014.2 0.0
 
Date/Time
CST
Temp
°C
App
Temp
°C
Dew
Point
°C
Rel
Hum
%
Delta-T
°C
Wind Press
QNH
hPa
Press
MSL
hPa
Rain since
9am
mm
Dir  Spd
km/h
Gust
km/h
Spd
kts
Gust
kts
16/11:30pm 21.6 20.8 6.7 38 7.6 CALM 0 0 0 0 1014.5 1014.2 0.0
16/11:00pm 22.2 22.4 10.7 48 6.4 CALM 0 0 0 0 1014.4 1014.1 0.0
16/10:30pm 22.7 21.5 6.5 35 8.3 ENE 2 7 1 4 1014.2 1013.9 0.0
16/10:00pm 23.3 22.6 7.0 35 8.5 CALM 0 0 0 0 1014.2 1013.9 0.0
16/09:30pm 23.9 23.6 10.2 42 7.6 ENE 2 6 1 3 1014.2 1013.9 0.0
16/09:00pm 24.5 24.9 11.1 43 7.5 CALM 0 6 0 3 1013.9 1013.6 0.0
16/08:30pm 25.2 24.8 8.2 34 9.1 CALM 0 0 0 0 1013.6 1013.3 0.0
16/08:00pm 26.1 25.3 6.7 29 10.2 CALM 0 0 0 0 1013.3 1013.0 0.0
16/07:30pm 27.6 27.3 8.5 30 10.4 CALM 0 4 0 2 1013.1 1012.8 0.0
16/07:00pm 29.1 27.2 7.7 26 11.6 ENE 7 9 4 5 1012.8 1012.5 0.0
16/06:30pm 31.0 29.1 7.5 23 12.9 ESE 7 9 4 5 1012.5 1012.2 0.0
16/06:00pm 32.6 30.1 6.7 20 14.1 ESE 9 15 5 8 1012.1 1011.8 0.0
16/05:30pm 33.3 30.2 7.3 20 14.4 ESE 13 19 7 10 1011.9 1011.6 0.0
16/05:00pm 33.8 30.8 7.7 20 14.5 SE 13 26 7 14 1011.6 1011.3 0.0
16/04:30pm 34.3 31.0 8.1 20 14.7 E 15 20 8 11 1011.6 1011.3 0.0
16/04:00pm 34.4 32.1 7.5 19 15.0 ESE 9 17 5 9 1011.6 1011.3 0.0
16/03:30pm 34.3 31.8 8.1 20 14.7 ESE 11 22 6 12 1011.9 1011.6 0.0
16/03:00pm 33.7 30.3 7.6 20 14.5 E 15 26 8 14 1012.2 1012.0 0.0
16/02:30pm 33.9 31.5 8.5 21 14.3 ENE 11 19 6 10 1012.5 1012.2 0.0
16/02:00pm 34.3 31.7 9.5 22 14.2 ENE 13 22 7 12 1012.9 1012.6 0.0
16/01:30pm 33.1 30.3 8.5 22 13.8 E 13 22 7 12 1013.4 1013.1 0.0
16/01:00pm 33.3 31.4 10.6 25 13.2 NE 11 19 6 10 1013.9 1013.6 0.0
16/12:30pm 32.1 29.2 9.6 25 12.8 ENE 15 26 8 14 1014.5 1014.2 0.0
16/12:00pm 31.8 29.1 10.5 27 12.3 NE 15 26 8 14 1014.9 1014.7 0.0
16/11:30am 30.9 28.7 10.8 29 11.6 NNE 13 20 7 11 1015.4 1015.1 0.0
16/11:00am 29.9 27.1 11.4 32 10.7 NNE 17 24 9 13 1015.6 1015.3 0.0
16/10:30am 28.5 26.0 11.1 34 10.0 NNE 15 19 8 10 1016.0 1015.7 0.0
16/10:00am 27.7 24.9 11.3 36 9.4 NE 17 22 9 12 1016.1 1015.8 0.0
16/09:30am 26.4 25.1 11.3 39 8.6 NE 9 13 5 7 1016.1 1015.8 0.0

Other formats

Comma delimited format used in spreadsheet applications
http://www.bom.gov.au/fwo/IDD60801/IDD60801.94232.axf

JavaScript Object Notation format (JSON) in row-major order
http://www.bom.gov.au/fwo/IDD60801/IDD60801.94232.json

Data quality

Most of these data are generated automatically and are frequently updated. Quality checks on data are not normally performed. It is possible for incorrect values to appear. Refer to information at About Latest Weather Observations and please check the disclaimer before using these data.